sensor_id;sensor_type;location;lat;lon;timestamp;temperature;humidity
21518;DHT22;61765;45.794;24.150;2023-02-27T00:04:42;9.40;90.00
21518;DHT22;61765;45.794;24.150;2023-02-27T00:12:48;9.20;89.90
21518;DHT22;61765;45.794;24.150;2023-02-27T00:20:56;9.50;90.30
21518;DHT22;61765;45.794;24.150;2023-02-27T00:29:02;9.60;90.20
21518;DHT22;61765;45.794;24.150;2023-02-27T00:37:13;9.80;90.00
21518;DHT22;61765;45.794;24.150;2023-02-27T00:45:18;9.50;89.50
21518;DHT22;61765;45.794;24.150;2023-02-27T00:53:26;9.90;88.00
21518;DHT22;61765;45.794;24.150;2023-02-27T01:01:32;9.50;89.80
21518;DHT22;61765;45.794;24.150;2023-02-27T01:09:40;9.70;88.60
21518;DHT22;61765;45.794;24.150;2023-02-27T01:17:46;9.90;88.20
21518;DHT22;61765;45.794;24.150;2023-02-27T01:25:55;10.10;87.30
21518;DHT22;61765;45.794;24.150;2023-02-27T01:34:01;10.20;86.70
21518;DHT22;61765;45.794;24.150;2023-02-27T01:42:17;10.50;86.40
21518;DHT22;61765;45.794;24.150;2023-02-27T01:50:24;10.60;86.20
21518;DHT22;61765;45.794;24.150;2023-02-27T01:58:40;10.50;85.60
21518;DHT22;61765;45.794;24.150;2023-02-27T02:06:58;10.60;85.90
21518;DHT22;61765;45.794;24.150;2023-02-27T02:15:08;10.50;85.80
21518;DHT22;61765;45.794;24.150;2023-02-27T02:32:45;10.10;87.90
21518;DHT22;61765;45.794;24.150;2023-02-27T02:41:05;10.20;87.40
21518;DHT22;61765;45.794;24.150;2023-02-27T02:49:18;10.30;87.70
21518;DHT22;61765;45.794;24.150;2023-02-27T02:57:31;10.00;88.00
21518;DHT22;61765;45.794;24.150;2023-02-27T03:05:39;10.00;88.30
21518;DHT22;61765;45.794;24.150;2023-02-27T03:13:53;10.10;88.10
21518;DHT22;61765;45.794;24.150;2023-02-27T03:22:04;10.10;88.50
21518;DHT22;61765;45.794;24.150;2023-02-27T03:30:19;9.80;89.00
21518;DHT22;61765;45.794;24.150;2023-02-27T03:38:34;9.80;89.20
21518;DHT22;61765;45.794;24.150;2023-02-27T03:46:44;9.80;89.10
21518;DHT22;61765;45.794;24.150;2023-02-27T03:54:53;9.70;89.20
21518;DHT22;61765;45.794;24.150;2023-02-27T04:03:04;9.90;89.00
21518;DHT22;61765;45.794;24.150;2023-02-27T04:11:29;9.90;89.00
21518;DHT22;61765;45.794;24.150;2023-02-27T04:19:51;9.70;88.80
21518;DHT22;61765;45.794;24.150;2023-02-27T04:28:07;9.70;89.00
21518;DHT22;61765;45.794;24.150;2023-02-27T04:36:22;9.80;88.70
21518;DHT22;61765;45.794;24.150;2023-02-27T04:44:32;9.70;88.60
21518;DHT22;61765;45.794;24.150;2023-02-27T04:52:44;9.80;88.20
21518;DHT22;61765;45.794;24.150;2023-02-27T05:00:56;9.80;88.20
21518;DHT22;61765;45.794;24.150;2023-02-27T05:09:10;9.80;87.70
21518;DHT22;61765;45.794;24.150;2023-02-27T05:17:20;9.70;87.80
21518;DHT22;61765;45.794;24.150;2023-02-27T05:25:36;10.00;88.20
21518;DHT22;61765;45.794;24.150;2023-02-27T05:33:46;10.00;87.50
21518;DHT22;61765;45.794;24.150;2023-02-27T05:41:59;10.00;86.80
21518;DHT22;61765;45.794;24.150;2023-02-27T05:50:09;10.10;87.00
21518;DHT22;61765;45.794;24.150;2023-02-27T05:58:21;10.10;86.70
21518;DHT22;61765;45.794;24.150;2023-02-27T06:06:29;10.20;86.70
21518;DHT22;61765;45.794;24.150;2023-02-27T06:14:37;10.10;86.90
21518;DHT22;61765;45.794;24.150;2023-02-27T06:22:43;10.30;86.70
21518;DHT22;61765;45.794;24.150;2023-02-27T06:30:55;10.30;86.60
21518;DHT22;61765;45.794;24.150;2023-02-27T06:39:00;10.30;86.60
21518;DHT22;61765;45.794;24.150;2023-02-27T06:47:08;10.10;87.20
21518;DHT22;61765;45.794;24.150;2023-02-27T06:55:14;10.30;87.90
21518;DHT22;61765;45.794;24.150;2023-02-27T07:03:26;10.20;87.20
21518;DHT22;61765;45.794;24.150;2023-02-27T07:11:32;10.40;86.80
21518;DHT22;61765;45.794;24.150;2023-02-27T07:19:40;10.30;86.40
21518;DHT22;61765;45.794;24.150;2023-02-27T07:27:46;10.20;87.60
21518;DHT22;61765;45.794;24.150;2023-02-27T07:35:54;10.00;87.20
21518;DHT22;61765;45.794;24.150;2023-02-27T07:44:00;10.10;87.40
21518;DHT22;61765;45.794;24.150;2023-02-27T07:52:08;10.10;86.90
21518;DHT22;61765;45.794;24.150;2023-02-27T08:08:23;10.20;87.10
21518;DHT22;61765;45.794;24.150;2023-02-27T08:16:30;10.20;87.00
21518;DHT22;61765;45.794;24.150;2023-02-27T08:24:38;10.30;86.90
21518;DHT22;61765;45.794;24.150;2023-02-27T08:32:44;10.40;86.90
21518;DHT22;61765;45.794;24.150;2023-02-27T08:40:53;10.50;86.50
21518;DHT22;61765;45.794;24.150;2023-02-27T08:48:58;10.50;86.50
21518;DHT22;61765;45.794;24.150;2023-02-27T08:57:06;10.50;86.50
21518;DHT22;61765;45.794;24.150;2023-02-27T09:05:12;10.60;86.00
21518;DHT22;61765;45.794;24.150;2023-02-27T09:13:20;10.40;86.80
21518;DHT22;61765;45.794;24.150;2023-02-27T09:21:26;10.70;86.60
21518;DHT22;61765;45.794;24.150;2023-02-27T09:29:35;10.40;87.00
21518;DHT22;61765;45.794;24.150;2023-02-27T09:37:41;10.80;86.70
21518;DHT22;61765;45.794;24.150;2023-02-27T09:45:52;10.70;85.60
21518;DHT22;61765;45.794;24.150;2023-02-27T09:54:00;11.00;85.50
21518;DHT22;61765;45.794;24.150;2023-02-27T10:02:23;11.10;84.40
21518;DHT22;61765;45.794;24.150;2023-02-27T10:10:37;11.70;83.90
21518;DHT22;61765;45.794;24.150;2023-02-27T10:18:54;11.60;82.70
21518;DHT22;61765;45.794;24.150;2023-02-27T10:27:02;12.00;81.50
21518;DHT22;61765;45.794;24.150;2023-02-27T10:35:24;11.60;81.70
21518;DHT22;61765;45.794;24.150;2023-02-27T10:43:32;11.50;81.80
21518;DHT22;61765;45.794;24.150;2023-02-27T10:51:40;11.60;81.80
21518;DHT22;61765;45.794;24.150;2023-02-27T10:59:51;11.70;81.10
21518;DHT22;61765;45.794;24.150;2023-02-27T11:08:11;11.50;81.60
21518;DHT22;61765;45.794;24.150;2023-02-27T11:16:19;11.50;82.00
21518;DHT22;61765;45.794;24.150;2023-02-27T11:24:28;11.40;82.10
21518;DHT22;61765;45.794;24.150;2023-02-27T11:32:40;11.80;81.50
21518;DHT22;61765;45.794;24.150;2023-02-27T11:40:53;11.70;81.20
21518;DHT22;61765;45.794;24.150;2023-02-27T11:49:05;11.80;80.90
21518;DHT22;61765;45.794;24.150;2023-02-27T11:57:24;11.90;81.50
21518;DHT22;61765;45.794;24.150;2023-02-27T12:05:33;11.70;81.40
21518;DHT22;61765;45.794;24.150;2023-02-27T12:13:50;11.70;82.00
21518;DHT22;61765;45.794;24.150;2023-02-27T12:22:03;11.60;82.00
21518;DHT22;61765;45.794;24.150;2023-02-27T12:30:17;11.50;82.30
21518;DHT22;61765;45.794;24.150;2023-02-27T12:38:23;11.50;82.10
21518;DHT22;61765;45.794;24.150;2023-02-27T12:46:41;11.50;82.40
21518;DHT22;61765;45.794;24.150;2023-02-27T12:54:57;11.40;82.00
21518;DHT22;61765;45.794;24.150;2023-02-27T13:03:10;11.40;82.00
21518;DHT22;61765;45.794;24.150;2023-02-27T13:11:26;11.40;81.70
21518;DHT22;61765;45.794;24.150;2023-02-27T13:19:42;11.30;82.10
21518;DHT22;61765;45.794;24.150;2023-02-27T13:27:52;11.20;81.80
21518;DHT22;61765;45.794;24.150;2023-02-27T13:36:06;11.50;80.70
21518;DHT22;61765;45.794;24.150;2023-02-27T13:44:46;11.50;81.20
21518;DHT22;61765;45.794;24.150;2023-02-27T13:52:55;11.00;81.30
21518;DHT22;61765;45.794;24.150;2023-02-27T14:27:53;11.00;82.10
21518;DHT22;61765;45.794;24.150;2023-02-27T14:36:02;11.20;81.80
21518;DHT22;61765;45.794;24.150;2023-02-27T14:44:20;11.20;82.10
21518;DHT22;61765;45.794;24.150;2023-02-27T14:52:28;11.20;82.20
21518;DHT22;61765;45.794;24.150;2023-02-27T15:00:39;11.20;82.40
21518;DHT22;61765;45.794;24.150;2023-02-27T15:08:47;11.20;82.60
21518;DHT22;61765;45.794;24.150;2023-02-27T15:16:57;11.30;82.20
21518;DHT22;61765;45.794;24.150;2023-02-27T15:25:05;11.10;82.30
21518;DHT22;61765;45.794;24.150;2023-02-27T15:33:14;11.00;83.40
21518;DHT22;61765;45.794;24.150;2023-02-27T15:41:20;10.90;82.60
21518;DHT22;61765;45.794;24.150;2023-02-27T15:49:28;10.90;83.00
21518;DHT22;61765;45.794;24.150;2023-02-27T15:57:34;10.70;83.60
21518;DHT22;61765;45.794;24.150;2023-02-27T16:13:56;10.70;83.60
21518;DHT22;61765;45.794;24.150;2023-02-27T16:22:04;10.70;82.90
21518;DHT22;61765;45.794;24.150;2023-02-27T16:30:15;10.60;82.20
21518;DHT22;61765;45.794;24.150;2023-02-27T16:38:21;10.50;81.90
21518;DHT22;61765;45.794;24.150;2023-02-27T16:46:29;10.40;81.60
21518;DHT22;61765;45.794;24.150;2023-02-27T16:54:35;10.40;81.60
21518;DHT22;61765;45.794;24.150;2023-02-27T17:02:43;10.60;81.00
21518;DHT22;61765;45.794;24.150;2023-02-27T17:10:49;10.40;80.80
21518;DHT22;61765;45.794;24.150;2023-02-27T17:18:57;10.40;81.00
21518;DHT22;61765;45.794;24.150;2023-02-27T17:27:03;10.50;80.80
21518;DHT22;61765;45.794;24.150;2023-02-27T17:35:12;10.10;81.80
21518;DHT22;61765;45.794;24.150;2023-02-27T17:43:18;10.30;81.30
21518;DHT22;61765;45.794;24.150;2023-02-27T17:51:28;10.40;81.80
21518;DHT22;61765;45.794;24.150;2023-02-27T17:59:34;10.40;81.80
21518;DHT22;61765;45.794;24.150;2023-02-27T18:07:42;10.30;81.30
21518;DHT22;61765;45.794;24.150;2023-02-27T18:15:49;10.00;82.20
21518;DHT22;61765;45.794;24.150;2023-02-27T18:23:57;10.20;81.60
21518;DHT22;61765;45.794;24.150;2023-02-27T18:32:03;10.20;81.40
21518;DHT22;61765;45.794;24.150;2023-02-27T18:40:13;10.10;80.90
21518;DHT22;61765;45.794;24.150;2023-02-27T18:48:19;9.90;81.60
21518;DHT22;61765;45.794;24.150;2023-02-27T18:56:27;9.90;82.00
21518;DHT22;61765;45.794;24.150;2023-02-27T19:04:37;10.00;81.60
21518;DHT22;61765;45.794;24.150;2023-02-27T19:12:48;10.20;81.40
21518;DHT22;61765;45.794;24.150;2023-02-27T19:20:54;10.30;81.20
21518;DHT22;61765;45.794;24.150;2023-02-27T19:29:03;10.10;80.50
21518;DHT22;61765;45.794;24.150;2023-02-27T19:37:13;10.20;80.90
21518;DHT22;61765;45.794;24.150;2023-02-27T19:45:28;10.30;80.00
21518;DHT22;61765;45.794;24.150;2023-02-27T19:53:41;10.00;80.00
21518;DHT22;61765;45.794;24.150;2023-02-27T20:01:50;10.10;80.30
21518;DHT22;61765;45.794;24.150;2023-02-27T20:09:55;10.00;80.30
21518;DHT22;61765;45.794;24.150;2023-02-27T20:18:04;10.20;80.00
21518;DHT22;61765;45.794;24.150;2023-02-27T20:26:15;10.20;80.10
21518;DHT22;61765;45.794;24.150;2023-02-27T20:34:24;10.20;80.20
21518;DHT22;61765;45.794;24.150;2023-02-27T20:42:33;10.30;79.80
21518;DHT22;61765;45.794;24.150;2023-02-27T20:50:42;10.20;79.50
21518;DHT22;61765;45.794;24.150;2023-02-27T20:58:52;10.00;80.80
21518;DHT22;61765;45.794;24.150;2023-02-27T21:07:00;10.00;79.70
21518;DHT22;61765;45.794;24.150;2023-02-27T21:15:07;9.90;79.90
21518;DHT22;61765;45.794;24.150;2023-02-27T21:23:19;10.10;79.80
21518;DHT22;61765;45.794;24.150;2023-02-27T21:31:27;10.00;80.00
21518;DHT22;61765;45.794;24.150;2023-02-27T21:39:36;10.00;79.80
21518;DHT22;61765;45.794;24.150;2023-02-27T21:47:42;9.30;83.30
21518;DHT22;61765;45.794;24.150;2023-02-27T21:55:50;9.40;83.60
21518;DHT22;61765;45.794;24.150;2023-02-27T22:03:56;9.30;83.00
21518;DHT22;61765;45.794;24.150;2023-02-27T22:12:06;9.40;83.40
21518;DHT22;61765;45.794;24.150;2023-02-27T22:20:12;9.50;83.50
21518;DHT22;61765;45.794;24.150;2023-02-27T22:28:21;9.00;84.70
21518;DHT22;61765;45.794;24.150;2023-02-27T22:36:28;9.00;85.40
21518;DHT22;61765;45.794;24.150;2023-02-27T22:44:36;9.50;84.20
21518;DHT22;61765;45.794;24.150;2023-02-27T22:52:42;9.40;84.30
21518;DHT22;61765;45.794;24.150;2023-02-27T23:00:50;9.30;84.10
21518;DHT22;61765;45.794;24.150;2023-02-27T23:08:56;9.50;85.40
21518;DHT22;61765;45.794;24.150;2023-02-27T23:17:04;8.90;86.20
21518;DHT22;61765;45.794;24.150;2023-02-27T23:25:09;9.30;86.40
21518;DHT22;61765;45.794;24.150;2023-02-27T23:33:17;9.50;85.70
21518;DHT22;61765;45.794;24.150;2023-02-27T23:41:22;9.60;85.50
21518;DHT22;61765;45.794;24.150;2023-02-27T23:49:32;9.90;85.10
21518;DHT22;61765;45.794;24.150;2023-02-27T23:57:37;9.90;84.60
